createdAt,value
2019-02-20T00:00:47.160Z,1.30
2019-02-20T00:03:16.968Z,1.30
2019-02-20T00:05:46.397Z,1.20
2019-02-20T00:08:15.583Z,1.20
2019-02-20T00:10:44.688Z,1.20
2019-02-20T00:13:13.848Z,1.20
2019-02-20T00:15:42.953Z,1.20
2019-02-20T00:18:12.166Z,1.20
2019-02-20T00:20:41.282Z,1.10
2019-02-20T00:23:10.381Z,1.10
2019-02-20T00:25:39.539Z,1.10
2019-02-20T00:28:08.643Z,1.10
2019-02-20T00:30:37.816Z,1.10
2019-02-20T00:33:06.946Z,1.00
2019-02-20T00:35:36.100Z,1.00
2019-02-20T00:38:05.249Z,0.90
2019-02-20T00:40:34.359Z,0.90
2019-02-20T00:43:03.505Z,0.90
2019-02-20T00:46:00.706Z,0.90
2019-02-20T00:49:06.973Z,0.80
2019-02-20T00:51:52.201Z,0.80
2019-02-20T00:54:21.371Z,0.70
2019-02-20T00:56:50.517Z,0.70
2019-02-20T00:59:19.621Z,0.70
2019-02-20T01:01:48.793Z,0.70
2019-02-20T01:04:17.913Z,0.70
2019-02-20T01:06:47.043Z,0.70
2019-02-20T01:09:16.223Z,0.70
2019-02-20T01:11:45.380Z,0.70
2019-02-20T01:14:14.500Z,0.60
2019-02-20T01:16:43.611Z,0.60
2019-02-20T01:19:12.757Z,0.50
2019-02-20T01:21:41.909Z,0.50
2019-02-20T01:24:11.018Z,0.50
2019-02-20T01:26:40.211Z,0.50
2019-02-20T01:29:09.333Z,0.40
2019-02-20T01:31:38.513Z,0.40
2019-02-20T01:34:07.630Z,0.30
2019-02-20T01:36:36.777Z,0.30
2019-02-20T01:39:06.796Z,0.30
2019-02-20T01:41:35.926Z,0.30
2019-02-20T01:44:05.019Z,0.30
2019-02-20T01:46:34.183Z,0.20
2019-02-20T01:49:03.390Z,0.20
2019-02-20T01:51:32.533Z,0.10
2019-02-20T01:54:01.679Z,0.10
2019-02-20T01:56:30.781Z,0.10
2019-02-20T01:59:00.036Z,0.10
2019-02-20T02:01:29.190Z,0.00
2019-02-20T02:03:58.507Z,0.00
2019-02-20T02:06:27.604Z,0.00
2019-02-20T02:08:56.828Z,0.00
2019-02-20T02:11:26.017Z,-0.10
2019-02-20T02:13:55.218Z,-0.10
2019-02-20T02:16:24.392Z,-0.10
2019-02-20T02:18:53.550Z,-0.20
2019-02-20T02:21:22.747Z,-0.20
2019-02-20T02:23:51.888Z,-0.20
2019-02-20T02:26:20.992Z,-0.20
2019-02-20T02:28:50.130Z,-0.20
2019-02-20T02:31:19.308Z,-0.20
2019-02-20T02:33:48.426Z,-0.20
2019-02-20T02:36:17.518Z,-0.20
2019-02-20T02:38:46.654Z,-0.20
2019-02-20T02:41:15.760Z,-0.20
2019-02-20T02:43:44.917Z,-0.20
2019-02-20T02:46:14.021Z,-0.30
2019-02-20T02:48:43.136Z,-0.30
2019-02-20T02:51:12.258Z,-0.30
2019-02-20T02:53:41.406Z,-0.30
2019-02-20T02:56:10.829Z,-0.30
2019-02-20T02:58:40.026Z,-0.30
2019-02-20T03:01:09.149Z,-0.30
2019-02-20T03:03:38.258Z,-0.40
2019-02-20T03:06:07.392Z,-0.40
2019-02-20T03:08:36.500Z,-0.40
2019-02-20T03:11:05.709Z,-0.40
2019-02-20T03:13:34.836Z,-0.40
2019-02-20T03:16:04.088Z,-0.50
2019-02-20T03:18:33.282Z,-0.50
2019-02-20T03:21:02.386Z,-0.50
2019-02-20T03:23:40.014Z,-0.50
2019-02-20T03:26:02.381Z,-0.60
2019-02-20T03:28:31.502Z,-0.60
2019-02-20T03:31:00.649Z,-0.60
2019-02-20T03:33:29.845Z,-0.60
2019-02-20T03:35:58.996Z,-0.60
2019-02-20T03:38:30.611Z,-0.60
2019-02-20T03:40:59.017Z,-0.60
2019-02-20T03:43:28.232Z,-0.60
2019-02-20T03:45:57.358Z,-0.50
2019-02-20T03:48:26.513Z,-0.50
2019-02-20T03:50:55.633Z,-0.50
2019-02-20T03:53:24.772Z,-0.50
2019-02-20T03:55:54.133Z,-0.40
2019-02-20T03:58:23.271Z,-0.40
2019-02-20T04:00:52.408Z,-0.30
2019-02-20T04:03:21.548Z,-0.30
2019-02-20T04:05:50.665Z,-0.30
2019-02-20T04:08:19.800Z,-0.30
2019-02-20T04:10:48.942Z,-0.20
2019-02-20T04:13:18.055Z,-0.20
2019-02-20T04:15:47.263Z,-0.10
2019-02-20T04:18:16.426Z,-0.10
2019-02-20T04:20:45.628Z,-0.10
2019-02-20T04:23:14.847Z,0.00
2019-02-20T04:25:43.970Z,0.00
2019-02-20T04:28:13.109Z,0.00
2019-02-20T04:30:42.272Z,0.00
2019-02-20T04:33:11.437Z,0.00
2019-02-20T04:35:40.540Z,0.00
2019-02-20T04:38:09.672Z,0.00
2019-02-20T04:40:38.896Z,0.10
2019-02-20T04:43:08.120Z,0.10
2019-02-20T04:45:37.252Z,0.10
2019-02-20T04:48:06.409Z,0.10
2019-02-20T04:50:35.614Z,0.10
2019-02-20T04:53:04.768Z,0.20
2019-02-20T04:55:33.922Z,0.20
2019-02-20T04:58:19.929Z,0.20
2019-02-20T05:00:49.140Z,0.20
2019-02-20T05:03:37.488Z,0.20
2019-02-20T05:06:06.720Z,0.20
2019-02-20T05:08:35.827Z,0.20
2019-02-20T05:11:04.972Z,0.20
2019-02-20T05:13:34.091Z,0.20
2019-02-20T05:16:03.193Z,0.20
2019-02-20T05:18:32.311Z,0.20
2019-02-20T05:21:01.451Z,0.20
2019-02-20T05:23:30.586Z,0.20
2019-02-20T05:25:59.720Z,0.20
2019-02-20T05:28:28.891Z,0.20
2019-02-20T05:30:58.055Z,0.20
2019-02-20T05:33:27.192Z,0.20
2019-02-20T05:35:56.301Z,0.20
2019-02-20T05:38:25.444Z,0.20
2019-02-20T05:40:54.654Z,0.20
2019-02-20T05:43:23.788Z,0.20
2019-02-20T05:45:52.927Z,0.20
2019-02-20T05:48:22.066Z,0.20
2019-02-20T05:50:51.223Z,0.20
2019-02-20T05:53:20.387Z,0.20
2019-02-20T05:55:49.541Z,0.20
2019-02-20T05:58:18.708Z,0.20
2019-02-20T06:00:47.928Z,0.20
2019-02-20T06:03:17.042Z,0.20
2019-02-20T06:05:46.199Z,0.20
2019-02-20T06:08:15.346Z,0.20
2019-02-20T06:10:44.513Z,0.20
2019-02-20T06:13:13.632Z,0.20
2019-02-20T06:15:43.178Z,0.10
2019-02-20T06:18:12.387Z,0.10
2019-02-20T06:20:41.513Z,0.10
2019-02-20T06:23:10.715Z,0.10
2019-02-20T06:25:39.832Z,0.10
2019-02-20T06:28:08.981Z,0.10
2019-02-20T06:30:38.109Z,0.10
2019-02-20T06:33:07.258Z,0.10
2019-02-20T06:35:36.378Z,0.10
2019-02-20T06:38:05.542Z,0.10
2019-02-20T06:40:34.723Z,0.10
2019-02-20T06:43:03.871Z,0.10
2019-02-20T06:45:32.983Z,0.00
2019-02-20T06:48:02.104Z,0.00
2019-02-20T06:50:31.213Z,0.00
2019-02-20T06:53:00.372Z,0.00
2019-02-20T06:55:29.493Z,0.00
2019-02-20T06:57:58.633Z,0.00
2019-02-20T07:00:27.764Z,0.00
2019-02-20T07:02:56.893Z,0.10
2019-02-20T07:05:36.808Z,0.10
2019-02-20T07:08:32.331Z,0.10
2019-02-20T07:11:37.335Z,0.20
2019-02-20T07:14:28.375Z,0.20
2019-02-20T07:17:53.740Z,0.20
2019-02-20T07:21:03.653Z,0.20
2019-02-20T07:24:00.362Z,0.30
2019-02-20T07:26:43.630Z,0.30
2019-02-20T07:29:49.712Z,0.30
2019-02-20T07:32:18.931Z,0.30
2019-02-20T07:34:48.148Z,0.40
2019-02-20T07:37:17.309Z,0.40
2019-02-20T07:39:46.912Z,0.40
2019-02-20T07:42:16.028Z,0.50
2019-02-20T07:44:45.165Z,0.50
2019-02-20T07:47:14.285Z,0.50
2019-02-20T07:49:43.396Z,0.50
2019-02-20T07:52:12.675Z,0.50
2019-02-20T07:54:41.920Z,0.50
2019-02-20T07:57:11.145Z,0.60
2019-02-20T07:59:40.275Z,0.60
2019-02-20T08:02:09.481Z,0.50
2019-02-20T08:04:38.606Z,0.50
2019-02-20T08:07:07.796Z,0.50
2019-02-20T08:09:36.888Z,0.50
2019-02-20T08:12:06.125Z,0.50
2019-02-20T08:14:35.202Z,0.50
2019-02-20T08:17:04.398Z,0.50
2019-02-20T08:19:33.527Z,0.60
2019-02-20T08:22:02.702Z,0.60
2019-02-20T08:24:31.827Z,0.60
2019-02-20T08:27:01.017Z,0.60
2019-02-20T08:29:30.143Z,0.60
2019-02-20T08:31:59.316Z,0.60
2019-02-20T08:34:28.484Z,0.70
2019-02-20T08:36:57.579Z,0.80
2019-02-20T08:39:26.734Z,0.90
2019-02-20T08:41:55.844Z,1.00
2019-02-20T08:44:24.950Z,1.00
2019-02-20T08:46:54.190Z,1.00
2019-02-20T08:49:23.398Z,1.10
2019-02-20T08:51:52.538Z,1.10
2019-02-20T08:54:21.671Z,1.20
2019-02-20T08:56:50.843Z,1.20
2019-02-20T08:59:19.967Z,1.30
2019-02-20T09:01:49.101Z,1.40
2019-02-20T09:04:18.257Z,1.60
2019-02-20T09:06:47.431Z,1.70
2019-02-20T09:09:16.619Z,1.70
2019-02-20T09:11:45.785Z,1.70
2019-02-20T09:14:14.961Z,1.60
2019-02-20T09:16:44.099Z,1.60
2019-02-20T09:19:13.212Z,1.70
2019-02-20T09:21:42.371Z,1.80
2019-02-20T09:24:11.502Z,1.90
2019-02-20T09:26:40.653Z,2.00
2019-02-20T09:29:09.799Z,2.10
2019-02-20T09:31:38.961Z,2.20
2019-02-20T09:34:08.078Z,2.30
2019-02-20T09:36:37.358Z,2.30
2019-02-20T09:39:33.469Z,2.30
2019-02-20T09:42:02.909Z,2.40
2019-02-20T09:44:35.239Z,2.50
2019-02-20T09:47:04.356Z,2.60
2019-02-20T09:49:33.523Z,2.70
2019-02-20T09:52:02.713Z,2.90
2019-02-20T09:54:31.967Z,2.90
2019-02-20T09:57:01.110Z,3.00
2019-02-20T09:59:30.280Z,3.10
2019-02-20T10:01:59.425Z,3.20
2019-02-20T10:04:28.613Z,3.30
2019-02-20T10:06:57.760Z,3.50
2019-02-20T10:09:26.908Z,3.60
2019-02-20T10:11:56.055Z,3.70
2019-02-20T10:14:25.156Z,3.80
2019-02-20T10:16:54.379Z,3.90
2019-02-20T10:19:23.561Z,4.00
2019-02-20T10:21:52.721Z,4.10
2019-02-20T10:24:21.885Z,4.20
2019-02-20T10:26:51.016Z,4.20
2019-02-20T10:29:20.160Z,4.40
2019-02-20T10:31:49.301Z,4.50
2019-02-20T10:34:18.526Z,4.70
2019-02-20T10:36:47.714Z,4.90
2019-02-20T10:39:16.836Z,5.10
2019-02-20T10:41:45.975Z,5.30
2019-02-20T10:44:15.170Z,5.50
2019-02-20T10:46:44.327Z,5.70
2019-02-20T10:49:13.454Z,5.90
2019-02-20T10:51:42.641Z,6.00
2019-02-20T10:54:11.802Z,6.10
2019-02-20T10:56:41.006Z,6.20
2019-02-20T10:59:10.198Z,6.30
2019-02-20T11:01:39.346Z,6.40
2019-02-20T11:04:08.504Z,6.40
2019-02-20T11:06:39.657Z,6.60
2019-02-20T11:09:08.577Z,6.70
2019-02-20T11:11:37.717Z,7.00
2019-02-20T11:14:06.864Z,7.20
2019-02-20T11:16:35.981Z,7.40
2019-02-20T11:19:05.150Z,7.70
2019-02-20T11:21:34.357Z,7.80
2019-02-20T11:24:03.518Z,8.00
2019-02-20T11:26:32.707Z,8.20
2019-02-20T11:29:01.973Z,8.40
2019-02-20T11:31:32.040Z,8.60
2019-02-20T11:34:01.873Z,8.80
2019-02-20T11:36:31.204Z,9.00
2019-02-20T11:39:00.334Z,9.20
2019-02-20T11:41:29.440Z,9.30
2019-02-20T11:43:58.683Z,9.40
2019-02-20T11:46:46.884Z,9.50
2019-02-20T11:49:16.032Z,9.60
2019-02-20T11:51:45.188Z,9.70
2019-02-20T11:54:14.396Z,9.80
2019-02-20T11:56:43.541Z,9.90
2019-02-20T11:59:12.724Z,10.00
2019-02-20T12:01:41.888Z,10.20
2019-02-20T12:04:11.022Z,10.30
2019-02-20T12:06:40.202Z,10.40
2019-02-20T12:09:10.332Z,10.70
2019-02-20T12:11:39.547Z,10.90
2019-02-20T12:14:08.662Z,10.90
2019-02-20T12:16:37.820Z,11.00
2019-02-20T12:19:06.948Z,11.10
2019-02-20T12:21:36.087Z,11.10
2019-02-20T12:24:05.664Z,11.20
2019-02-20T12:26:35.415Z,11.20
2019-02-20T12:29:04.882Z,11.60
2019-02-20T12:31:34.036Z,11.90
2019-02-20T12:34:03.161Z,12.20
2019-02-20T12:36:32.307Z,12.10
2019-02-20T12:39:01.525Z,12.30
2019-02-20T12:41:30.648Z,12.00
2019-02-20T12:43:59.814Z,12.10
2019-02-20T12:46:28.910Z,12.30
2019-02-20T12:48:58.073Z,12.10
2019-02-20T12:51:27.193Z,12.20
2019-02-20T12:53:56.390Z,12.30
2019-02-20T12:56:25.602Z,12.40
2019-02-20T12:58:54.783Z,12.60
2019-02-20T13:01:23.959Z,12.70
2019-02-20T13:03:53.293Z,12.70
2019-02-20T13:06:22.483Z,12.30
2019-02-20T13:08:51.658Z,12.00
2019-02-20T13:11:20.739Z,12.00
2019-02-20T13:13:52.790Z,12.00
2019-02-20T13:16:21.976Z,11.80
2019-02-20T13:18:51.127Z,11.60
2019-02-20T13:21:20.307Z,11.50
2019-02-20T13:23:49.516Z,11.40
2019-02-20T13:26:18.762Z,11.40
2019-02-20T13:28:47.916Z,11.40
2019-02-20T13:31:17.119Z,11.90
2019-02-20T13:33:46.411Z,12.50
2019-02-20T13:36:15.648Z,12.80
2019-02-20T13:38:44.807Z,13.20
2019-02-20T13:41:14.141Z,13.60
2019-02-20T13:43:48.590Z,13.80
2019-02-20T13:46:17.835Z,13.70
2019-02-20T13:48:47.075Z,13.90
2019-02-20T13:51:17.706Z,13.60
2019-02-20T13:53:47.112Z,13.30
2019-02-20T13:56:16.265Z,13.10
2019-02-20T13:58:46.832Z,13.10
2019-02-20T14:01:16.100Z,13.10
2019-02-20T14:03:50.737Z,13.10
2019-02-20T14:06:19.970Z,13.00
2019-02-20T14:08:49.603Z,13.00
2019-02-20T14:11:18.831Z,13.10
2019-02-20T14:13:48.112Z,13.10
2019-02-20T14:16:17.391Z,13.30
2019-02-20T14:18:46.611Z,13.00
2019-02-20T14:21:15.867Z,13.10
2019-02-20T14:23:45.122Z,13.30
2019-02-20T14:26:14.240Z,13.20
2019-02-20T14:28:43.417Z,13.40
2019-02-20T14:31:12.675Z,13.70
2019-02-20T14:33:41.972Z,13.60
2019-02-20T14:36:11.110Z,13.80
2019-02-20T14:38:40.467Z,13.70
2019-02-20T14:41:10.235Z,13.30
2019-02-20T14:43:39.433Z,13.30
2019-02-20T14:46:08.641Z,13.20
2019-02-20T14:48:37.887Z,13.60
2019-02-20T14:51:07.119Z,13.50
2019-02-20T14:53:36.319Z,13.50
2019-02-20T14:56:05.647Z,13.20
2019-02-20T14:58:34.913Z,12.80
2019-02-20T15:01:06.018Z,12.60
2019-02-20T15:03:35.031Z,12.30
2019-02-20T15:06:04.253Z,12.10
2019-02-20T15:08:33.429Z,12.10
2019-02-20T15:11:02.986Z,12.20
2019-02-20T15:13:32.170Z,12.50
2019-02-20T15:16:01.460Z,12.70
2019-02-20T15:18:30.675Z,12.60
2019-02-20T15:20:59.899Z,12.50
2019-02-20T15:23:29.191Z,12.30
2019-02-20T15:25:58.422Z,12.10
2019-02-20T15:28:27.811Z,12.00
2019-02-20T15:30:57.068Z,11.80
2019-02-20T15:33:26.346Z,11.80
2019-02-20T15:35:55.547Z,11.80
2019-02-20T15:38:24.714Z,11.80
2019-02-20T15:40:53.913Z,11.70
2019-02-20T15:43:23.300Z,11.70
2019-02-20T15:45:52.546Z,11.50
2019-02-20T15:48:23.561Z,11.50
2019-02-20T15:50:53.108Z,11.50
2019-02-20T15:53:22.618Z,11.50
2019-02-20T15:55:51.807Z,11.50
2019-02-20T15:58:21.543Z,11.60
2019-02-20T16:00:50.828Z,11.80
2019-02-20T16:03:20.065Z,11.80
2019-02-20T16:05:49.298Z,12.00
2019-02-20T16:08:18.540Z,12.00
2019-02-20T16:10:47.755Z,11.90
2019-02-20T16:13:17.283Z,11.90
2019-02-20T16:15:46.540Z,11.80
2019-02-20T16:18:15.724Z,11.60
2019-02-20T16:20:44.943Z,11.50
2019-02-20T16:23:16.213Z,11.40
2019-02-20T16:25:45.023Z,11.10
2019-02-20T16:28:14.269Z,11.00
2019-02-20T16:30:43.491Z,10.90
2019-02-20T16:33:12.628Z,10.70
2019-02-20T16:35:41.808Z,10.60
2019-02-20T16:38:11.034Z,10.50
2019-02-20T16:40:40.171Z,10.40
2019-02-20T16:43:09.325Z,10.40
2019-02-20T16:45:38.839Z,10.30
2019-02-20T16:48:08.099Z,10.20
2019-02-20T16:50:37.311Z,10.10
2019-02-20T16:53:06.587Z,10.00
2019-02-20T16:55:35.808Z,9.90
2019-02-20T16:58:04.920Z,9.80
2019-02-20T17:00:34.740Z,9.70
2019-02-20T17:03:04.036Z,9.60
2019-02-20T17:05:33.198Z,9.50
2019-02-20T17:08:02.407Z,9.40
2019-02-20T17:10:31.666Z,9.30
2019-02-20T17:13:00.869Z,9.20
2019-02-20T17:15:30.533Z,9.10
2019-02-20T17:17:59.762Z,9.00
2019-02-20T17:20:28.994Z,8.90
2019-02-20T17:22:58.260Z,8.80
2019-02-20T17:25:27.863Z,8.80
2019-02-20T17:28:05.303Z,8.60
2019-02-20T17:30:27.990Z,8.50
2019-02-20T17:32:57.174Z,8.50
2019-02-20T17:35:26.330Z,8.40
2019-02-20T17:37:55.604Z,8.40
2019-02-20T17:40:24.897Z,8.40
2019-02-20T17:42:54.029Z,8.40
2019-02-20T17:45:23.300Z,8.40
2019-02-20T17:47:52.440Z,8.30
2019-02-20T17:50:21.638Z,8.30
2019-02-20T17:52:50.804Z,8.20
2019-02-20T17:55:20.188Z,8.10
2019-02-20T17:57:49.364Z,8.10
2019-02-20T18:00:20.295Z,8.00
2019-02-20T18:02:49.467Z,7.90
2019-02-20T18:05:18.697Z,7.90
2019-02-20T18:07:51.419Z,7.80
2019-02-20T18:10:18.691Z,7.80
2019-02-20T18:12:47.932Z,7.70
2019-02-20T18:15:17.137Z,7.60
2019-02-20T18:17:46.292Z,7.60
2019-02-20T18:20:15.447Z,7.50
2019-02-20T18:22:44.558Z,7.40
2019-02-20T18:25:13.813Z,7.40
2019-02-20T18:27:42.927Z,7.30
2019-02-20T18:30:12.422Z,7.20
2019-02-20T18:32:41.573Z,7.20
2019-02-20T18:35:11.367Z,7.10
2019-02-20T18:37:40.546Z,7.00
2019-02-20T18:40:10.214Z,7.00
2019-02-20T18:42:39.446Z,6.90
2019-02-20T18:45:10.325Z,6.80
2019-02-20T18:47:39.719Z,6.70
2019-02-20T18:50:10.138Z,6.60
2019-02-20T18:52:39.302Z,6.50
2019-02-20T18:55:09.607Z,6.50
2019-02-20T18:57:38.766Z,6.40
2019-02-20T19:00:10.717Z,6.40
2019-02-20T19:02:39.925Z,6.40
2019-02-20T19:05:09.620Z,6.30
2019-02-20T19:07:38.730Z,6.30
2019-02-20T19:10:11.551Z,6.20
2019-02-20T19:13:27.572Z,6.20
2019-02-20T19:16:26.222Z,6.20
2019-02-20T19:19:47.501Z,6.10
2019-02-20T19:22:28.729Z,6.10
2019-02-20T19:25:17.722Z,6.00
2019-02-20T19:28:52.242Z,5.90
2019-02-20T19:32:06.597Z,5.90
2019-02-20T19:35:02.647Z,5.80
2019-02-20T19:38:16.225Z,5.80
2019-02-20T19:41:47.846Z,5.70
2019-02-20T19:44:55.060Z,5.70
2019-02-20T19:48:17.392Z,5.60
2019-02-20T19:51:07.693Z,5.50
2019-02-20T19:54:22.175Z,5.50
2019-02-20T19:57:25.969Z,5.40
2019-02-20T20:00:31.849Z,5.40
2019-02-20T20:03:36.167Z,5.30
2019-02-20T20:06:31.380Z,5.30
2019-02-20T20:09:11.457Z,5.20
2019-02-20T20:12:10.871Z,5.20
2019-02-20T20:15:15.208Z,5.20
2019-02-20T20:18:40.619Z,5.20
2019-02-20T20:21:32.703Z,5.20
2019-02-20T20:24:25.384Z,5.20
2019-02-20T20:27:29.076Z,5.20
2019-02-20T20:30:36.003Z,5.10
2019-02-20T20:33:18.340Z,5.10
2019-02-20T20:36:46.793Z,5.10
2019-02-20T20:39:48.188Z,5.10
2019-02-20T20:43:07.493Z,5.10
2019-02-20T20:46:04.857Z,5.10
2019-02-20T20:49:28.612Z,5.10
2019-02-20T20:52:38.154Z,5.00
2019-02-20T20:55:54.490Z,5.00
2019-02-20T20:58:56.268Z,5.00
2019-02-20T21:01:55.032Z,4.90
2019-02-20T21:05:06.054Z,4.90
2019-02-20T21:08:02.359Z,4.90
2019-02-20T21:10:57.761Z,4.80
2019-02-20T21:13:51.424Z,4.80
2019-02-20T21:16:44.388Z,4.80
2019-02-20T21:19:45.313Z,4.70
2019-02-20T21:22:44.938Z,4.70
2019-02-20T21:25:48.442Z,4.70
2019-02-20T21:28:33.264Z,4.60
2019-02-20T21:31:42.317Z,4.60
2019-02-20T21:34:38.120Z,4.50
2019-02-20T21:37:45.482Z,4.40
2019-02-20T21:40:41.245Z,4.40
2019-02-20T21:43:48.945Z,4.40
2019-02-20T21:46:50.113Z,4.30
2019-02-20T21:49:44.893Z,4.30
2019-02-20T21:52:50.795Z,4.30
2019-02-20T21:56:34.215Z,4.20
2019-02-20T22:00:02.627Z,4.10
2019-02-20T22:02:56.345Z,4.10
2019-02-20T22:05:45.199Z,4.00
2019-02-20T22:08:36.729Z,4.00
2019-02-20T22:11:39.505Z,3.90
2019-02-20T22:14:33.230Z,3.90
2019-02-20T22:17:26.525Z,3.90
2019-02-20T22:20:19.750Z,3.80
2019-02-20T22:23:16.781Z,3.80
2019-02-20T22:26:23.887Z,3.80
2019-02-20T22:29:36.311Z,3.70
2019-02-20T22:32:41.051Z,3.70
2019-02-20T22:35:19.239Z,3.60
2019-02-20T22:38:31.178Z,3.60
2019-02-20T22:41:26.298Z,3.50
2019-02-20T22:44:28.747Z,3.50
2019-02-20T22:47:38.905Z,3.50
2019-02-20T22:50:36.912Z,3.40
2019-02-20T22:53:28.820Z,3.40
2019-02-20T22:56:30.081Z,3.40
2019-02-20T22:59:13.520Z,3.30
2019-02-20T23:02:17.427Z,3.30
2019-02-20T23:05:39.036Z,3.30
2019-02-20T23:08:49.527Z,3.20
2019-02-20T23:11:44.312Z,3.20
2019-02-20T23:14:49.658Z,3.20
2019-02-20T23:17:18.820Z,3.10
2019-02-20T23:19:47.946Z,3.10
2019-02-20T23:22:17.097Z,3.10
2019-02-20T23:24:46.257Z,3.10
2019-02-20T23:27:15.415Z,3.10
2019-02-20T23:29:44.636Z,3.00
2019-02-20T23:32:13.773Z,3.00
2019-02-20T23:34:42.904Z,3.00
2019-02-20T23:37:12.048Z,3.00
2019-02-20T23:39:41.177Z,2.90
2019-02-20T23:42:10.330Z,2.90
2019-02-20T23:44:39.553Z,2.80
2019-02-20T23:47:08.702Z,2.80
2019-02-20T23:49:37.791Z,2.80
2019-02-20T23:52:06.995Z,2.70
2019-02-20T23:54:36.138Z,2.70
2019-02-20T23:57:05.279Z,2.70
2019-02-20T23:59:34.434Z,2.70
